Terminal Aerodrome Forecast
Issued by NWS Atlanta, GA

Home | Current Version | Previous Version | Text Only | Print | Product List | Glossary On
Versions: 1 2 3 4 5 6 7 8 9 10 11 12 13 14 15 16 17 18 19 20
000
FTUS42 KFFC 010535
TAFMCN
TAF
KMCN 010535Z 0106/0206 13008KT P6SM SCT035
     FM010900 16004KT 4SM BR BKN015
     FM011100 18004KT 3SM BR OVC009
     FM011400 21006KT P6SM OVC012
     FM011600 22008KT P6SM VCSH BKN025
     FM012200 23009KT 4SM -TSRA BKN030CB=

USA.gov is the U.S. government's official web portal to all federal, state and local government web resources and services.